sensor_id;sensor_type;location;lat;lon;timestamp;temperature;humidity
65396;HTU21D;52004;45.136;39.010;2022-11-04T00:02:24;11.00;71.98
65396;HTU21D;52004;45.136;39.010;2022-11-04T00:04:50;10.98;72.03
65396;HTU21D;52004;45.136;39.010;2022-11-04T00:07:15;10.96;72.03
65396;HTU21D;52004;45.136;39.010;2022-11-04T00:09:59;10.94;72.06
65396;HTU21D;52004;45.136;39.010;2022-11-04T00:12:26;10.95;72.13
65396;HTU21D;52004;45.136;39.010;2022-11-04T00:14:52;10.96;72.09
65396;HTU21D;52004;45.136;39.010;2022-11-04T00:17:18;10.96;72.10
65396;HTU21D;52004;45.136;39.010;2022-11-04T00:19:44;10.97;72.12
65396;HTU21D;52004;45.136;39.010;2022-11-04T00:22:29;10.98;72.08
65396;HTU21D;52004;45.136;39.010;2022-11-04T00:25:13;11.00;72.05
65396;HTU21D;52004;45.136;39.010;2022-11-04T00:28:05;11.00;72.07
65396;HTU21D;52004;45.136;39.010;2022-11-04T00:30:53;11.00;72.12
65396;HTU21D;52004;45.136;39.010;2022-11-04T00:33:19;11.01;72.12
65396;HTU21D;52004;45.136;39.010;2022-11-04T00:35:53;11.03;72.10
65396;HTU21D;52004;45.136;39.010;2022-11-04T00:38:19;11.03;72.09
65396;HTU21D;52004;45.136;39.010;2022-11-04T00:40:44;11.04;72.06
65396;HTU21D;52004;45.136;39.010;2022-11-04T00:43:10;11.03;72.09
65396;HTU21D;52004;45.136;39.010;2022-11-04T00:45:36;11.01;72.13
65396;HTU21D;52004;45.136;39.010;2022-11-04T00:48:02;11.00;72.15
65396;HTU21D;52004;45.136;39.010;2022-11-04T00:50:28;10.98;72.19
65396;HTU21D;52004;45.136;39.010;2022-11-04T00:52:58;10.97;72.22
65396;HTU21D;52004;45.136;39.010;2022-11-04T00:55:24;10.96;72.27
65396;HTU21D;52004;45.136;39.010;2022-11-04T00:57:50;10.96;72.31
65396;HTU21D;52004;45.136;39.010;2022-11-04T01:00:16;10.98;72.31
65396;HTU21D;52004;45.136;39.010;2022-11-04T01:02:42;10.99;72.24
65396;HTU21D;52004;45.136;39.010;2022-11-04T01:05:08;11.01;72.18
65396;HTU21D;52004;45.136;39.010;2022-11-04T01:07:34;10.99;72.18
65396;HTU21D;52004;45.136;39.010;2022-11-04T01:10:00;10.98;72.19
65396;HTU21D;52004;45.136;39.010;2022-11-04T01:12:26;10.97;72.18
65396;HTU21D;52004;45.136;39.010;2022-11-04T01:14:52;10.94;72.16
65396;HTU21D;52004;45.136;39.010;2022-11-04T01:17:18;10.90;72.18
65396;HTU21D;52004;45.136;39.010;2022-11-04T01:19:43;10.87;72.22
65396;HTU21D;52004;45.136;39.010;2022-11-04T01:22:10;10.85;72.20
65396;HTU21D;52004;45.136;39.010;2022-11-04T01:24:36;10.85;72.24
65396;HTU21D;52004;45.136;39.010;2022-11-04T01:27:02;10.85;72.28
65396;HTU21D;52004;45.136;39.010;2022-11-04T01:29:28;10.82;72.28
65396;HTU21D;52004;45.136;39.010;2022-11-04T01:31:54;10.81;72.34
65396;HTU21D;52004;45.136;39.010;2022-11-04T01:34:20;10.79;72.42
65396;HTU21D;52004;45.136;39.010;2022-11-04T01:36:46;10.80;72.44
65396;HTU21D;52004;45.136;39.010;2022-11-04T01:39:12;10.79;72.48
65396;HTU21D;52004;45.136;39.010;2022-11-04T01:41:38;10.79;72.51
65396;HTU21D;52004;45.136;39.010;2022-11-04T01:46:49;10.81;72.46
65396;HTU21D;52004;45.136;39.010;2022-11-04T01:49:23;10.79;72.41
65396;HTU21D;52004;45.136;39.010;2022-11-04T01:51:52;10.72;72.44
65396;HTU21D;52004;45.136;39.010;2022-11-04T01:54:19;10.69;72.45
65396;HTU21D;52004;45.136;39.010;2022-11-04T01:56:45;10.66;72.46
65396;HTU21D;52004;45.136;39.010;2022-11-04T01:59:18;10.65;72.51
65396;HTU21D;52004;45.136;39.010;2022-11-04T02:01:45;10.66;72.54
65396;HTU21D;52004;45.136;39.010;2022-11-04T02:04:11;10.67;72.55
65396;HTU21D;52004;45.136;39.010;2022-11-04T02:06:50;10.66;72.58
65396;HTU21D;52004;45.136;39.010;2022-11-04T02:09:17;10.68;72.57
65396;HTU21D;52004;45.136;39.010;2022-11-04T02:11:43;10.68;72.51
65396;HTU21D;52004;45.136;39.010;2022-11-04T02:14:28;10.68;72.51
65396;HTU21D;52004;45.136;39.010;2022-11-04T02:16:54;10.68;72.48
65396;HTU21D;52004;45.136;39.010;2022-11-04T02:19:35;10.67;72.49
65396;HTU21D;52004;45.136;39.010;2022-11-04T02:30:06;10.66;72.50
65396;HTU21D;52004;45.136;39.010;2022-11-04T02:35:20;10.57;72.55
65396;HTU21D;52004;45.136;39.010;2022-11-04T02:38:09;10.52;72.62
65396;HTU21D;52004;45.136;39.010;2022-11-04T02:45:47;10.41;72.66
65396;HTU21D;52004;45.136;39.010;2022-11-04T02:48:23;10.39;72.65
65396;HTU21D;52004;45.136;39.010;2022-11-04T02:53:35;10.36;72.66
65396;HTU21D;52004;45.136;39.010;2022-11-04T02:56:03;10.34;72.67
65396;HTU21D;52004;45.136;39.010;2022-11-04T02:58:37;0.00;72.69
65396;HTU21D;52004;45.136;39.010;2022-11-04T03:01:05;10.27;72.72
65396;HTU21D;52004;45.136;39.010;2022-11-04T03:03:39;10.25;72.74
65396;HTU21D;52004;45.136;39.010;2022-11-04T03:06:06;10.20;72.80
65396;HTU21D;52004;45.136;39.010;2022-11-04T03:08:40;10.16;72.82
65396;HTU21D;52004;45.136;39.010;2022-11-04T03:11:10;10.14;72.84
65396;HTU21D;52004;45.136;39.010;2022-11-04T03:16:15;10.11;72.87
65396;HTU21D;52004;45.136;39.010;2022-11-04T03:18:55;10.10;72.85
65396;HTU21D;52004;45.136;39.010;2022-11-04T03:21:21;10.08;72.87
65396;HTU21D;52004;45.136;39.010;2022-11-04T03:23:48;10.09;72.87
65396;HTU21D;52004;45.136;39.010;2022-11-04T03:26:22;10.11;72.87
65396;HTU21D;52004;45.136;39.010;2022-11-04T03:31:22;10.16;72.83
65396;HTU21D;52004;45.136;39.010;2022-11-04T03:33:49;10.18;72.81
65396;HTU21D;52004;45.136;39.010;2022-11-04T03:36:16;10.18;72.83
65396;HTU21D;52004;45.136;39.010;2022-11-04T03:38:42;10.19;72.84
65396;HTU21D;52004;45.136;39.010;2022-11-04T03:41:11;10.20;72.83
65396;HTU21D;52004;45.136;39.010;2022-11-04T03:43:38;10.20;72.83
65396;HTU21D;52004;45.136;39.010;2022-11-04T03:46:05;10.20;72.84
65396;HTU21D;52004;45.136;39.010;2022-11-04T03:48:31;10.21;72.80
65396;HTU21D;52004;45.136;39.010;2022-11-04T03:50:57;10.21;72.80
65396;HTU21D;52004;45.136;39.010;2022-11-04T03:53:23;10.20;72.80
65396;HTU21D;52004;45.136;39.010;2022-11-04T04:01:17;10.14;72.75
65396;HTU21D;52004;45.136;39.010;2022-11-04T04:04:00;10.13;72.73
65396;HTU21D;52004;45.136;39.010;2022-11-04T04:06:32;10.09;72.74
65396;HTU21D;52004;45.136;39.010;2022-11-04T04:09:11;10.06;72.83
65396;HTU21D;52004;45.136;39.010;2022-11-04T04:14:22;10.03;72.92
65396;HTU21D;52004;45.136;39.010;2022-11-04T04:17:04;9.98;72.99
65396;HTU21D;52004;45.136;39.010;2022-11-04T04:19:32;9.99;73.03
65396;HTU21D;52004;45.136;39.010;2022-11-04T04:22:00;9.96;73.03
65396;HTU21D;52004;45.136;39.010;2022-11-04T04:24:29;9.94;73.11
65396;HTU21D;52004;45.136;39.010;2022-11-04T04:27:15;9.93;73.22
65396;HTU21D;52004;45.136;39.010;2022-11-04T04:30:00;9.94;73.25
65396;HTU21D;52004;45.136;39.010;2022-11-04T04:32:27;9.95;73.28
65396;HTU21D;52004;45.136;39.010;2022-11-04T04:34:54;0.00;73.30
65396;HTU21D;52004;45.136;39.010;2022-11-04T04:37:40;0.00;73.32
65396;HTU21D;52004;45.136;39.010;2022-11-04T04:40:07;10.03;73.32
65396;HTU21D;52004;45.136;39.010;2022-11-04T04:42:53;10.07;73.23
65396;HTU21D;52004;45.136;39.010;2022-11-04T04:45:47;10.08;73.27
65396;HTU21D;52004;45.136;39.010;2022-11-04T04:48:14;10.13;73.32
65396;HTU21D;52004;45.136;39.010;2022-11-04T04:50:44;0.00;73.28
65396;HTU21D;52004;45.136;39.010;2022-11-04T04:53:13;0.00;73.28
65396;HTU21D;52004;45.136;39.010;2022-11-04T04:55:39;10.27;73.28
65396;HTU21D;52004;45.136;39.010;2022-11-04T04:58:05;10.31;73.23
65396;HTU21D;52004;45.136;39.010;2022-11-04T05:00:30;10.35;73.15
65396;HTU21D;52004;45.136;39.010;2022-11-04T05:02:58;10.38;73.12
65396;HTU21D;52004;45.136;39.010;2022-11-04T05:05:24;10.37;73.10
65396;HTU21D;52004;45.136;39.010;2022-11-04T05:07:50;10.39;73.11
65396;HTU21D;52004;45.136;39.010;2022-11-04T05:10:16;10.38;73.07
65396;HTU21D;52004;45.136;39.010;2022-11-04T05:12:42;10.35;73.12
65396;HTU21D;52004;45.136;39.010;2022-11-04T05:15:27;10.34;73.15
65396;HTU21D;52004;45.136;39.010;2022-11-04T05:17:54;0.00;73.15
65396;HTU21D;52004;45.136;39.010;2022-11-04T05:20:20;10.33;73.16
65396;HTU21D;52004;45.136;39.010;2022-11-04T05:22:46;10.33;73.21
65396;HTU21D;52004;45.136;39.010;2022-11-04T05:25:12;10.33;73.27
65396;HTU21D;52004;45.136;39.010;2022-11-04T05:27:38;10.36;73.32
65396;HTU21D;52004;45.136;39.010;2022-11-04T05:30:04;10.41;73.47
65396;HTU21D;52004;45.136;39.010;2022-11-04T05:32:30;10.51;73.53
65396;HTU21D;52004;45.136;39.010;2022-11-04T05:34:56;10.58;73.56
65396;HTU21D;52004;45.136;39.010;2022-11-04T05:37:22;0.00;73.60
65396;HTU21D;52004;45.136;39.010;2022-11-04T05:39:48;10.83;73.48
65396;HTU21D;52004;45.136;39.010;2022-11-04T05:42:14;10.94;73.41
65396;HTU21D;52004;45.136;39.010;2022-11-04T05:44:39;11.07;73.32
65396;HTU21D;52004;45.136;39.010;2022-11-04T05:47:05;11.22;73.40
65396;HTU21D;52004;45.136;39.010;2022-11-04T05:49:31;11.45;73.73
65396;HTU21D;52004;45.136;39.010;2022-11-04T05:51:58;11.73;74.13
65396;HTU21D;52004;45.136;39.010;2022-11-04T05:54:24;12.01;74.31
65396;HTU21D;52004;45.136;39.010;2022-11-04T05:56:51;12.30;74.22
65396;HTU21D;52004;45.136;39.010;2022-11-04T05:59:17;12.57;74.47
65396;HTU21D;52004;45.136;39.010;2022-11-04T06:01:44;12.90;74.81
65396;HTU21D;52004;45.136;39.010;2022-11-04T06:04:13;13.26;74.91
65396;HTU21D;52004;45.136;39.010;2022-11-04T06:06:39;13.55;74.59
65396;HTU21D;52004;45.136;39.010;2022-11-04T06:09:05;13.75;74.26
65396;HTU21D;52004;45.136;39.010;2022-11-04T06:11:31;13.89;73.97
65396;HTU21D;52004;45.136;39.010;2022-11-04T06:13:57;13.94;73.85
65396;HTU21D;52004;45.136;39.010;2022-11-04T06:16:23;14.12;74.09
65396;HTU21D;52004;45.136;39.010;2022-11-04T06:18:49;14.22;73.52
65396;HTU21D;52004;45.136;39.010;2022-11-04T06:23:43;14.44;74.04
65396;HTU21D;52004;45.136;39.010;2022-11-04T06:26:10;14.53;73.46
65396;HTU21D;52004;45.136;39.010;2022-11-04T06:28:36;14.55;73.21
65396;HTU21D;52004;45.136;39.010;2022-11-04T06:31:02;14.64;73.71
65396;HTU21D;52004;45.136;39.010;2022-11-04T06:33:29;14.82;73.96
65396;HTU21D;52004;45.136;39.010;2022-11-04T06:35:56;15.03;74.28
65396;HTU21D;52004;45.136;39.010;2022-11-04T06:38:22;15.26;74.24
65396;HTU21D;52004;45.136;39.010;2022-11-04T06:40:48;0.00;74.21
65396;HTU21D;52004;45.136;39.010;2022-11-04T06:43:14;15.71;74.26
65396;HTU21D;52004;45.136;39.010;2022-11-04T06:45:40;15.93;74.24
65396;HTU21D;52004;45.136;39.010;2022-11-04T06:48:06;16.22;74.39
65396;HTU21D;52004;45.136;39.010;2022-11-04T06:50:32;16.42;74.06
65396;HTU21D;52004;45.136;39.010;2022-11-04T06:52:58;16.56;74.06
65396;HTU21D;52004;45.136;39.010;2022-11-04T06:55:24;16.67;73.93
65396;HTU21D;52004;45.136;39.010;2022-11-04T06:57:50;16.81;73.80
65396;HTU21D;52004;45.136;39.010;2022-11-04T07:00:16;16.95;73.64
65396;HTU21D;52004;45.136;39.010;2022-11-04T07:02:42;16.99;73.36
65396;HTU21D;52004;45.136;39.010;2022-11-04T07:05:08;17.14;73.62
65396;HTU21D;52004;45.136;39.010;2022-11-04T07:07:34;17.29;73.60
65396;HTU21D;52004;45.136;39.010;2022-11-04T07:10:00;17.45;73.65
65396;HTU21D;52004;45.136;39.010;2022-11-04T07:12:26;17.66;73.63
65396;HTU21D;52004;45.136;39.010;2022-11-04T07:14:52;17.96;73.42
65396;HTU21D;52004;45.136;39.010;2022-11-04T07:17:20;18.10;73.02
65396;HTU21D;52004;45.136;39.010;2022-11-04T07:19:46;18.19;71.79
65396;HTU21D;52004;45.136;39.010;2022-11-04T07:22:12;18.03;70.87
65396;HTU21D;52004;45.136;39.010;2022-11-04T07:24:37;17.96;71.60
65396;HTU21D;52004;45.136;39.010;2022-11-04T07:27:03;18.05;72.30
65396;HTU21D;52004;45.136;39.010;2022-11-04T07:29:31;18.23;72.77
65396;HTU21D;52004;45.136;39.010;2022-11-04T07:31:56;18.51;73.06
65396;HTU21D;52004;45.136;39.010;2022-11-04T07:34:22;18.81;73.02
65396;HTU21D;52004;45.136;39.010;2022-11-04T07:36:49;18.89;72.61
65396;HTU21D;52004;45.136;39.010;2022-11-04T07:39:14;19.02;72.68
65396;HTU21D;52004;45.136;39.010;2022-11-04T07:41:40;19.27;72.59
65396;HTU21D;52004;45.136;39.010;2022-11-04T07:44:09;0.00;72.37
65396;HTU21D;52004;45.136;39.010;2022-11-04T07:46:35;19.68;72.47
65396;HTU21D;52004;45.136;39.010;2022-11-04T07:49:01;0.00;72.19
65396;HTU21D;52004;45.136;39.010;2022-11-04T07:51:28;19.99;71.94
65396;HTU21D;52004;45.136;39.010;2022-11-04T07:53:54;19.98;71.42
65396;HTU21D;52004;45.136;39.010;2022-11-04T07:56:20;19.87;71.59
65396;HTU21D;52004;45.136;39.010;2022-11-04T07:58:48;19.94;71.81
65396;HTU21D;52004;45.136;39.010;2022-11-04T08:01:16;19.95;71.27
65396;HTU21D;52004;45.136;39.010;2022-11-04T08:03:42;19.66;70.91
65396;HTU21D;52004;45.136;39.010;2022-11-04T08:06:08;19.45;70.42
65396;HTU21D;52004;45.136;39.010;2022-11-04T08:08:35;19.25;69.49
65396;HTU21D;52004;45.136;39.010;2022-11-04T08:11:06;18.80;67.98
65396;HTU21D;52004;45.136;39.010;2022-11-04T08:13:33;18.33;68.41
65396;HTU21D;52004;45.136;39.010;2022-11-04T08:16:03;18.09;68.46
65396;HTU21D;52004;45.136;39.010;2022-11-04T08:18:30;17.78;68.00
65396;HTU21D;52004;45.136;39.010;2022-11-04T08:20:56;17.43;68.00
65396;HTU21D;52004;45.136;39.010;2022-11-04T08:23:22;17.19;68.16
65396;HTU21D;52004;45.136;39.010;2022-11-04T08:25:48;17.01;68.04
65396;HTU21D;52004;45.136;39.010;2022-11-04T08:28:13;16.76;68.10
65396;HTU21D;52004;45.136;39.010;2022-11-04T08:33:27;16.59;69.49
65396;HTU21D;52004;45.136;39.010;2022-11-04T08:35:54;16.87;71.37
65396;HTU21D;52004;45.136;39.010;2022-11-04T08:38:20;17.29;72.61
65396;HTU21D;52004;45.136;39.010;2022-11-04T08:40:46;17.66;71.87
65396;HTU21D;52004;45.136;39.010;2022-11-04T08:43:12;17.91;70.58
65396;HTU21D;52004;45.136;39.010;2022-11-04T08:45:39;17.91;69.25
65396;HTU21D;52004;45.136;39.010;2022-11-04T08:48:05;17.73;68.35
65396;HTU21D;52004;45.136;39.010;2022-11-04T08:50:56;17.75;70.01
65396;HTU21D;52004;45.136;39.010;2022-11-04T08:53:26;18.08;71.55
65396;HTU21D;52004;45.136;39.010;2022-11-04T08:55:52;18.56;72.22
65396;HTU21D;52004;45.136;39.010;2022-11-04T08:58:18;18.87;71.23
65396;HTU21D;52004;45.136;39.010;2022-11-04T09:00:44;0.00;69.96
65396;HTU21D;52004;45.136;39.010;2022-11-04T09:03:10;18.82;69.36
65396;HTU21D;52004;45.136;39.010;2022-11-04T09:05:37;18.73;68.58
65396;HTU21D;52004;45.136;39.010;2022-11-04T09:08:15;18.56;68.60
65396;HTU21D;52004;45.136;39.010;2022-11-04T09:10:45;18.74;70.29
65396;HTU21D;52004;45.136;39.010;2022-11-04T09:13:11;18.84;69.40
65396;HTU21D;52004;45.136;39.010;2022-11-04T09:15:37;18.79;69.72
65396;HTU21D;52004;45.136;39.010;2022-11-04T09:18:03;18.86;70.46
65396;HTU21D;52004;45.136;39.010;2022-11-04T09:20:29;18.81;69.30
65396;HTU21D;52004;45.136;39.010;2022-11-04T09:22:56;18.72;69.73
65396;HTU21D;52004;45.136;39.010;2022-11-04T09:25:22;18.66;69.75
65396;HTU21D;52004;45.136;39.010;2022-11-04T09:27:48;18.72;70.37
65396;HTU21D;52004;45.136;39.010;2022-11-04T09:30:14;18.66;68.78
65396;HTU21D;52004;45.136;39.010;2022-11-04T09:32:40;18.35;67.44
65396;HTU21D;52004;45.136;39.010;2022-11-04T09:35:07;17.96;67.17
65396;HTU21D;52004;45.136;39.010;2022-11-04T09:37:33;17.62;67.03
65396;HTU21D;52004;45.136;39.010;2022-11-04T09:39:59;17.33;66.94
65396;HTU21D;52004;45.136;39.010;2022-11-04T09:45:00;17.13;68.44
65396;HTU21D;52004;45.136;39.010;2022-11-04T09:47:29;17.38;69.48
65396;HTU21D;52004;45.136;39.010;2022-11-04T09:49:56;17.66;70.08
65396;HTU21D;52004;45.136;39.010;2022-11-04T09:52:23;17.84;69.45
65396;HTU21D;52004;45.136;39.010;2022-11-04T09:55:00;18.14;70.29
65396;HTU21D;52004;45.136;39.010;2022-11-04T09:57:29;18.32;68.81
65396;HTU21D;52004;45.136;39.010;2022-11-04T09:59:55;18.21;67.73
65396;HTU21D;52004;45.136;39.010;2022-11-04T10:12:43;17.20;65.62
65396;HTU21D;52004;45.136;39.010;2022-11-04T10:15:16;17.03;65.58
65396;HTU21D;52004;45.136;39.010;2022-11-04T10:17:53;16.86;65.58
65396;HTU21D;52004;45.136;39.010;2022-11-04T10:22:55;16.56;65.72
65396;HTU21D;52004;45.136;39.010;2022-11-04T10:27:57;16.39;65.68
65396;HTU21D;52004;45.136;39.010;2022-11-04T10:30:24;16.28;65.72
65396;HTU21D;52004;45.136;39.010;2022-11-04T10:32:58;0.00;65.81
65396;HTU21D;52004;45.136;39.010;2022-11-04T10:37:52;16.07;65.88
65396;HTU21D;52004;45.136;39.010;2022-11-04T10:40:23;16.02;65.87
65396;HTU21D;52004;45.136;39.010;2022-11-04T10:42:50;15.98;65.87
65396;HTU21D;52004;45.136;39.010;2022-11-04T10:45:16;15.96;65.81
65396;HTU21D;52004;45.136;39.010;2022-11-04T10:47:46;15.95;65.68
65396;HTU21D;52004;45.136;39.010;2022-11-04T10:50:24;15.90;65.66
65396;HTU21D;52004;45.136;39.010;2022-11-04T10:52:54;15.87;65.66
65396;HTU21D;52004;45.136;39.010;2022-11-04T10:58:08;15.73;65.59
65396;HTU21D;52004;45.136;39.010;2022-11-04T11:00:38;15.66;65.69
65396;HTU21D;52004;45.136;39.010;2022-11-04T11:03:20;0.00;65.69
65396;HTU21D;52004;45.136;39.010;2022-11-04T11:05:46;15.69;65.71
65396;HTU21D;52004;45.136;39.010;2022-11-04T11:08:30;15.70;65.69
65396;HTU21D;52004;45.136;39.010;2022-11-04T11:10:57;15.72;65.59
65396;HTU21D;52004;45.136;39.010;2022-11-04T11:13:25;15.71;65.55
65396;HTU21D;52004;45.136;39.010;2022-11-04T11:16:05;15.67;65.59
65396;HTU21D;52004;45.136;39.010;2022-11-04T11:18:31;15.62;65.68
65396;HTU21D;52004;45.136;39.010;2022-11-04T11:21:05;15.59;65.79
65396;HTU21D;52004;45.136;39.010;2022-11-04T11:23:42;15.58;65.75
65396;HTU21D;52004;45.136;39.010;2022-11-04T11:26:12;15.57;65.74
65396;HTU21D;52004;45.136;39.010;2022-11-04T11:28:39;15.55;65.70
65396;HTU21D;52004;45.136;39.010;2022-11-04T11:31:07;15.51;65.74
65396;HTU21D;52004;45.136;39.010;2022-11-04T11:34:37;15.47;65.99
65396;HTU21D;52004;45.136;39.010;2022-11-04T11:36:33;15.65;66.24
65396;HTU21D;52004;45.136;39.010;2022-11-04T11:41:34;15.74;65.79
65396;HTU21D;52004;45.136;39.010;2022-11-04T11:44:22;15.71;65.70
65396;HTU21D;52004;45.136;39.010;2022-11-04T11:47:35;15.61;65.74
65396;HTU21D;52004;45.136;39.010;2022-11-04T11:49:36;15.55;65.85
65396;HTU21D;52004;45.136;39.010;2022-11-04T11:54:47;15.54;66.20
65396;HTU21D;52004;45.136;39.010;2022-11-04T11:57:58;15.71;66.57
65396;HTU21D;52004;45.136;39.010;2022-11-04T12:00:04;16.05;66.62
65396;HTU21D;52004;45.136;39.010;2022-11-04T12:02:54;16.35;66.56
65396;HTU21D;52004;45.136;39.010;2022-11-04T12:05:27;16.59;66.38
65396;HTU21D;52004;45.136;39.010;2022-11-04T12:08:04;16.74;66.29
65396;HTU21D;52004;45.136;39.010;2022-11-04T12:10:38;16.86;66.24
65396;HTU21D;52004;45.136;39.010;2022-11-04T12:26:06;0.00;66.14
65396;HTU21D;52004;45.136;39.010;2022-11-04T12:36:24;17.45;65.91
65396;HTU21D;52004;45.136;39.010;2022-11-04T12:41:36;0.00;65.32
65396;HTU21D;52004;45.136;39.010;2022-11-04T12:44:07;16.73;65.38
65396;HTU21D;52004;45.136;39.010;2022-11-04T12:46:47;16.44;65.62
65396;HTU21D;52004;45.136;39.010;2022-11-04T12:51:55;16.04;65.93
65396;HTU21D;52004;45.136;39.010;2022-11-04T12:57:33;15.72;66.06
65396;HTU21D;52004;45.136;39.010;2022-11-04T13:02:33;15.48;66.21
65396;HTU21D;52004;45.136;39.010;2022-11-04T13:05:02;15.47;66.56
65396;HTU21D;52004;45.136;39.010;2022-11-04T13:07:39;15.55;66.65
65396;HTU21D;52004;45.136;39.010;2022-11-04T13:10:15;15.65;66.66
65396;HTU21D;52004;45.136;39.010;2022-11-04T13:12:44;15.70;66.52
65396;HTU21D;52004;45.136;39.010;2022-11-04T13:15:16;15.65;66.15
65396;HTU21D;52004;45.136;39.010;2022-11-04T13:17:51;15.49;66.03
65396;HTU21D;52004;45.136;39.010;2022-11-04T13:20:21;15.36;66.01
65396;HTU21D;52004;45.136;39.010;2022-11-04T13:22:51;15.18;66.08
65396;HTU21D;52004;45.136;39.010;2022-11-04T13:27:44;15.00;66.37
65396;HTU21D;52004;45.136;39.010;2022-11-04T13:38:08;14.72;66.53
65396;HTU21D;52004;45.136;39.010;2022-11-04T13:45:51;14.40;66.39
65396;HTU21D;52004;45.136;39.010;2022-11-04T13:48:25;14.25;66.47
65396;HTU21D;52004;45.136;39.010;2022-11-04T13:51:09;14.13;66.52
65396;HTU21D;52004;45.136;39.010;2022-11-04T13:53:41;14.04;66.56
65396;HTU21D;52004;45.136;39.010;2022-11-04T13:56:07;13.97;66.57
65396;HTU21D;52004;45.136;39.010;2022-11-04T13:58:34;13.89;66.55
65396;HTU21D;52004;45.136;39.010;2022-11-04T14:01:10;0.00;66.58
65396;HTU21D;52004;45.136;39.010;2022-11-04T14:03:38;13.69;66.65
65396;HTU21D;52004;45.136;39.010;2022-11-04T14:06:13;13.60;66.72
65396;HTU21D;52004;45.136;39.010;2022-11-04T14:08:43;13.53;66.74
65396;HTU21D;52004;45.136;39.010;2022-11-04T14:11:24;13.45;66.76
65396;HTU21D;52004;45.136;39.010;2022-11-04T14:14:00;13.36;66.83
65396;HTU21D;52004;45.136;39.010;2022-11-04T14:18:53;13.30;66.81
65396;HTU21D;52004;45.136;39.010;2022-11-04T14:21:20;13.26;66.73
65396;HTU21D;52004;45.136;39.010;2022-11-04T14:23:48;13.20;66.75
65396;HTU21D;52004;45.136;39.010;2022-11-04T14:26:15;13.17;66.69
65396;HTU21D;52004;45.136;39.010;2022-11-04T14:28:45;13.12;66.68
65396;HTU21D;52004;45.136;39.010;2022-11-04T14:31:12;13.08;66.70
65396;HTU21D;52004;45.136;39.010;2022-11-04T14:33:51;13.00;66.70
65396;HTU21D;52004;45.136;39.010;2022-11-04T14:41:39;12.75;66.89
65396;HTU21D;52004;45.136;39.010;2022-11-04T14:44:18;12.69;66.86
65396;HTU21D;52004;45.136;39.010;2022-11-04T14:46:47;12.61;66.89
65396;HTU21D;52004;45.136;39.010;2022-11-04T14:52:00;12.43;66.98
65396;HTU21D;52004;45.136;39.010;2022-11-04T14:54:28;12.33;67.05
65396;HTU21D;52004;45.136;39.010;2022-11-04T14:57:06;12.28;67.10
65396;HTU21D;52004;45.136;39.010;2022-11-04T14:59:32;12.23;67.14
65396;HTU21D;52004;45.136;39.010;2022-11-04T15:01:57;12.23;67.20
65396;HTU21D;52004;45.136;39.010;2022-11-04T15:04:28;12.23;67.20
65396;HTU21D;52004;45.136;39.010;2022-11-04T15:06:56;12.22;67.18
65396;HTU21D;52004;45.136;39.010;2022-11-04T15:09:27;12.25;67.14
65396;HTU21D;52004;45.136;39.010;2022-11-04T15:14:53;12.18;67.13
65396;HTU21D;52004;45.136;39.010;2022-11-04T15:17:19;12.14;67.14
65396;HTU21D;52004;45.136;39.010;2022-11-04T15:19:52;12.08;67.18
65396;HTU21D;52004;45.136;39.010;2022-11-04T15:22:20;12.05;67.18
65396;HTU21D;52004;45.136;39.010;2022-11-04T15:24:47;0.00;67.20
65396;HTU21D;52004;45.136;39.010;2022-11-04T15:27:16;0.00;67.23
65396;HTU21D;52004;45.136;39.010;2022-11-04T15:29:56;11.93;67.21
65396;HTU21D;52004;45.136;39.010;2022-11-04T15:32:23;11.89;67.22
65396;HTU21D;52004;45.136;39.010;2022-11-04T15:34:49;11.83;67.25
65396;HTU21D;52004;45.136;39.010;2022-11-04T15:37:15;11.77;67.27
65396;HTU21D;52004;45.136;39.010;2022-11-04T15:39:43;11.72;67.28
65396;HTU21D;52004;45.136;39.010;2022-11-04T15:42:17;11.66;67.36
65396;HTU21D;52004;45.136;39.010;2022-11-04T15:47:58;11.56;67.40
65396;HTU21D;52004;45.136;39.010;2022-11-04T15:50:35;11.51;67.41
65396;HTU21D;52004;45.136;39.010;2022-11-04T15:53:01;11.47;67.39
65396;HTU21D;52004;45.136;39.010;2022-11-04T15:55:27;11.43;67.43
65396;HTU21D;52004;45.136;39.010;2022-11-04T15:57:56;11.42;67.46
65396;HTU21D;52004;45.136;39.010;2022-11-04T16:00:23;11.41;67.49
65396;HTU21D;52004;45.136;39.010;2022-11-04T16:02:50;11.40;67.46
65396;HTU21D;52004;45.136;39.010;2022-11-04T16:07:44;11.33;67.49
65396;HTU21D;52004;45.136;39.010;2022-11-04T16:10:44;11.30;67.55
65396;HTU21D;52004;45.136;39.010;2022-11-04T16:15:46;11.23;67.69
65396;HTU21D;52004;45.136;39.010;2022-11-04T16:20:45;0.00;67.72
65396;HTU21D;52004;45.136;39.010;2022-11-04T16:23:15;11.15;67.84
65396;HTU21D;52004;45.136;39.010;2022-11-04T16:25:42;11.15;67.90
65396;HTU21D;52004;45.136;39.010;2022-11-04T16:28:29;11.14;67.89
65396;HTU21D;52004;45.136;39.010;2022-11-04T16:30:58;11.13;67.88
65396;HTU21D;52004;45.136;39.010;2022-11-04T16:33:24;11.08;67.85
65396;HTU21D;52004;45.136;39.010;2022-11-04T16:35:50;11.04;67.88
65396;HTU21D;52004;45.136;39.010;2022-11-04T16:38:16;11.00;67.89
65396;HTU21D;52004;45.136;39.010;2022-11-04T16:40:43;10.94;67.88
65396;HTU21D;52004;45.136;39.010;2022-11-04T16:43:10;10.88;67.91
65396;HTU21D;52004;45.136;39.010;2022-11-04T16:45:37;0.00;67.93
65396;HTU21D;52004;45.136;39.010;2022-11-04T16:48:04;10.79;68.02
65396;HTU21D;52004;45.136;39.010;2022-11-04T16:50:30;10.77;68.05
65396;HTU21D;52004;45.136;39.010;2022-11-04T16:52:57;10.73;68.07
65396;HTU21D;52004;45.136;39.010;2022-11-04T16:55:23;10.73;68.10
65396;HTU21D;52004;45.136;39.010;2022-11-04T16:57:51;10.71;68.12
65396;HTU21D;52004;45.136;39.010;2022-11-04T17:00:20;10.69;68.11
65396;HTU21D;52004;45.136;39.010;2022-11-04T17:02:47;10.67;68.16
65396;HTU21D;52004;45.136;39.010;2022-11-04T17:05:14;10.65;68.17
65396;HTU21D;52004;45.136;39.010;2022-11-04T17:07:40;10.64;68.21
65396;HTU21D;52004;45.136;39.010;2022-11-04T17:10:14;10.62;68.26
65396;HTU21D;52004;45.136;39.010;2022-11-04T17:12:40;10.58;68.29
65396;HTU21D;52004;45.136;39.010;2022-11-04T17:15:07;10.56;68.33
65396;HTU21D;52004;45.136;39.010;2022-11-04T17:17:33;10.58;68.34
65396;HTU21D;52004;45.136;39.010;2022-11-04T17:19:59;10.58;68.36
65396;HTU21D;52004;45.136;39.010;2022-11-04T17:22:25;10.59;68.38
65396;HTU21D;52004;45.136;39.010;2022-11-04T17:24:51;10.60;68.39
65396;HTU21D;52004;45.136;39.010;2022-11-04T17:27:17;10.63;68.40
65396;HTU21D;52004;45.136;39.010;2022-11-04T17:29:44;10.67;68.36
65396;HTU21D;52004;45.136;39.010;2022-11-04T17:32:10;10.68;68.36
65396;HTU21D;52004;45.136;39.010;2022-11-04T17:34:36;10.69;68.30
65396;HTU21D;52004;45.136;39.010;2022-11-04T17:37:02;10.69;68.33